sensor_id;sensor_type;location;lat;lon;timestamp;P1;durP1;ratioP1;P2;durP2;ratioP2
74791;SDS011;63319;46.046;17.802;2023-03-01T00:02:04;8.73;;;5.47;;
74791;SDS011;63319;46.046;17.802;2023-03-01T00:05:08;9.15;;;5.10;;
74791;SDS011;63319;46.046;17.802;2023-03-01T00:08:11;8.20;;;4.90;;
74791;SDS011;63319;46.046;17.802;2023-03-01T00:11:16;9.50;;;5.57;;
74791;SDS011;63319;46.046;17.802;2023-03-01T00:14:21;8.02;;;5.00;;
74791;SDS011;63319;46.046;17.802;2023-03-01T00:17:24;8.40;;;4.65;;
74791;SDS011;63319;46.046;17.802;2023-03-01T00:20:28;8.27;;;4.60;;
74791;SDS011;63319;46.046;17.802;2023-03-01T00:23:31;8.97;;;5.63;;
74791;SDS011;63319;46.046;17.802;2023-03-01T00:26:36;9.20;;;5.40;;
74791;SDS011;63319;46.046;17.802;2023-03-01T00:29:40;9.82;;;5.25;;
74791;SDS011;63319;46.046;17.802;2023-03-01T00:32:43;9.43;;;5.30;;
74791;SDS011;63319;46.046;17.802;2023-03-01T00:35:46;8.77;;;5.13;;
74791;SDS011;63319;46.046;17.802;2023-03-01T00:38:48;7.47;;;4.87;;
74791;SDS011;63319;46.046;17.802;2023-03-01T00:41:51;9.17;;;4.93;;
74791;SDS011;63319;46.046;17.802;2023-03-01T00:44:54;9.77;;;5.30;;
74791;SDS011;63319;46.046;17.802;2023-03-01T00:47:57;7.97;;;4.90;;
74791;SDS011;63319;46.046;17.802;2023-03-01T00:51:10;8.15;;;4.97;;
74791;SDS011;63319;46.046;17.802;2023-03-01T00:54:21;7.10;;;4.60;;
74791;SDS011;63319;46.046;17.802;2023-03-01T00:57:27;7.83;;;5.30;;
74791;SDS011;63319;46.046;17.802;2023-03-01T01:00:32;8.10;;;4.80;;
74791;SDS011;63319;46.046;17.802;2023-03-01T01:04:00;7.13;;;4.50;;
74791;SDS011;63319;46.046;17.802;2023-03-01T01:07:09;8.63;;;4.85;;
74791;SDS011;63319;46.046;17.802;2023-03-01T01:10:20;7.50;;;4.70;;
74791;SDS011;63319;46.046;17.802;2023-03-01T01:13:23;7.20;;;4.23;;
74791;SDS011;63319;46.046;17.802;2023-03-01T01:16:32;9.52;;;5.45;;
74791;SDS011;63319;46.046;17.802;2023-03-01T01:19:39;8.40;;;4.63;;
74791;SDS011;63319;46.046;17.802;2023-03-01T01:22:42;8.50;;;5.22;;
74791;SDS011;63319;46.046;17.802;2023-03-01T01:25:45;7.40;;;4.53;;
74791;SDS011;63319;46.046;17.802;2023-03-01T01:28:49;8.27;;;5.03;;
74791;SDS011;63319;46.046;17.802;2023-03-01T01:31:52;7.53;;;4.90;;
74791;SDS011;63319;46.046;17.802;2023-03-01T01:34:55;8.02;;;4.43;;
74791;SDS011;63319;46.046;17.802;2023-03-01T01:37:58;8.25;;;4.70;;
74791;SDS011;63319;46.046;17.802;2023-03-01T01:41:01;8.23;;;5.00;;
74791;SDS011;63319;46.046;17.802;2023-03-01T01:44:20;8.23;;;4.67;;
74791;SDS011;63319;46.046;17.802;2023-03-01T01:47:25;8.00;;;4.95;;
74791;SDS011;63319;46.046;17.802;2023-03-01T01:50:30;7.88;;;4.63;;
74791;SDS011;63319;46.046;17.802;2023-03-01T01:53:41;7.50;;;4.68;;
74791;SDS011;63319;46.046;17.802;2023-03-01T01:56:55;7.17;;;4.40;;
74791;SDS011;63319;46.046;17.802;2023-03-01T02:00:03;7.90;;;4.63;;
74791;SDS011;63319;46.046;17.802;2023-03-01T02:03:19;7.75;;;5.13;;
74791;SDS011;63319;46.046;17.802;2023-03-01T02:06:37;8.45;;;4.50;;
74791;SDS011;63319;46.046;17.802;2023-03-01T02:09:48;8.07;;;4.47;;
74791;SDS011;63319;46.046;17.802;2023-03-01T02:12:53;8.57;;;5.00;;
74791;SDS011;63319;46.046;17.802;2023-03-01T02:15:58;8.00;;;4.50;;
74791;SDS011;63319;46.046;17.802;2023-03-01T02:19:04;7.22;;;4.20;;
74791;SDS011;63319;46.046;17.802;2023-03-01T02:22:13;7.00;;;4.35;;
74791;SDS011;63319;46.046;17.802;2023-03-01T02:29:00;8.60;;;4.97;;
74791;SDS011;63319;46.046;17.802;2023-03-01T02:32:04;7.60;;;4.80;;
74791;SDS011;63319;46.046;17.802;2023-03-01T02:35:09;7.90;;;4.45;;
74791;SDS011;63319;46.046;17.802;2023-03-01T02:38:18;7.63;;;4.38;;
74791;SDS011;63319;46.046;17.802;2023-03-01T02:41:22;7.88;;;4.65;;
74791;SDS011;63319;46.046;17.802;2023-03-01T02:44:27;7.17;;;4.57;;
74791;SDS011;63319;46.046;17.802;2023-03-01T02:47:29;7.53;;;4.40;;
74791;SDS011;63319;46.046;17.802;2023-03-01T02:54:17;7.60;;;4.40;;
74791;SDS011;63319;46.046;17.802;2023-03-01T02:57:27;7.45;;;4.68;;
74791;SDS011;63319;46.046;17.802;2023-03-01T03:00:33;7.67;;;4.67;;
74791;SDS011;63319;46.046;17.802;2023-03-01T03:03:43;8.10;;;4.67;;
74791;SDS011;63319;46.046;17.802;2023-03-01T03:06:47;8.68;;;5.60;;
74791;SDS011;63319;46.046;17.802;2023-03-01T03:09:52;7.72;;;4.80;;
74791;SDS011;63319;46.046;17.802;2023-03-01T03:12:59;7.65;;;4.55;;
74791;SDS011;63319;46.046;17.802;2023-03-01T03:16:13;8.20;;;4.60;;
74791;SDS011;63319;46.046;17.802;2023-03-01T03:19:17;7.57;;;4.40;;
74791;SDS011;63319;46.046;17.802;2023-03-01T03:22:21;7.68;;;4.00;;
74791;SDS011;63319;46.046;17.802;2023-03-01T03:25:24;8.20;;;3.88;;
74791;SDS011;63319;46.046;17.802;2023-03-01T03:28:31;7.20;;;4.50;;
74791;SDS011;63319;46.046;17.802;2023-03-01T03:31:35;7.60;;;4.37;;
74791;SDS011;63319;46.046;17.802;2023-03-01T03:34:38;7.20;;;3.90;;
74791;SDS011;63319;46.046;17.802;2023-03-01T03:37:41;7.78;;;4.55;;
74791;SDS011;63319;46.046;17.802;2023-03-01T03:41:04;8.25;;;4.57;;
74791;SDS011;63319;46.046;17.802;2023-03-01T03:44:09;7.82;;;4.45;;
74791;SDS011;63319;46.046;17.802;2023-03-01T03:47:12;7.57;;;4.57;;
74791;SDS011;63319;46.046;17.802;2023-03-01T03:50:16;6.93;;;3.73;;
74791;SDS011;63319;46.046;17.802;2023-03-01T03:53:20;7.85;;;3.97;;
74791;SDS011;63319;46.046;17.802;2023-03-01T03:56:24;8.45;;;4.70;;
74791;SDS011;63319;46.046;17.802;2023-03-01T03:59:30;7.55;;;4.32;;
74791;SDS011;63319;46.046;17.802;2023-03-01T04:02:32;7.80;;;4.70;;
74791;SDS011;63319;46.046;17.802;2023-03-01T04:05:35;8.33;;;4.47;;
74791;SDS011;63319;46.046;17.802;2023-03-01T04:08:39;7.53;;;4.40;;
74791;SDS011;63319;46.046;17.802;2023-03-01T04:11:43;8.70;;;4.57;;
74791;SDS011;63319;46.046;17.802;2023-03-01T04:14:46;8.00;;;4.10;;
74791;SDS011;63319;46.046;17.802;2023-03-01T04:17:50;7.10;;;4.00;;
74791;SDS011;63319;46.046;17.802;2023-03-01T04:20:55;7.47;;;4.17;;
74791;SDS011;63319;46.046;17.802;2023-03-01T04:24:01;7.28;;;4.15;;
74791;SDS011;63319;46.046;17.802;2023-03-01T04:27:06;7.75;;;3.97;;
74791;SDS011;63319;46.046;17.802;2023-03-01T04:30:09;8.95;;;4.97;;
74791;SDS011;63319;46.046;17.802;2023-03-01T04:33:21;7.60;;;4.30;;
74791;SDS011;63319;46.046;17.802;2023-03-01T04:36:25;7.07;;;4.33;;
74791;SDS011;63319;46.046;17.802;2023-03-01T04:39:30;7.57;;;4.45;;
74791;SDS011;63319;46.046;17.802;2023-03-01T04:42:33;7.45;;;4.43;;
74791;SDS011;63319;46.046;17.802;2023-03-01T04:45:36;7.75;;;4.53;;
74791;SDS011;63319;46.046;17.802;2023-03-01T04:48:39;7.73;;;4.63;;
74791;SDS011;63319;46.046;17.802;2023-03-01T04:51:43;8.23;;;4.77;;
74791;SDS011;63319;46.046;17.802;2023-03-01T04:54:46;7.70;;;4.30;;
74791;SDS011;63319;46.046;17.802;2023-03-01T04:57:52;7.82;;;4.97;;
74791;SDS011;63319;46.046;17.802;2023-03-01T05:00:56;8.73;;;4.47;;
74791;SDS011;63319;46.046;17.802;2023-03-01T05:03:59;7.47;;;4.30;;
74791;SDS011;63319;46.046;17.802;2023-03-01T05:07:05;7.67;;;4.57;;
74791;SDS011;63319;46.046;17.802;2023-03-01T05:10:08;7.82;;;4.00;;
74791;SDS011;63319;46.046;17.802;2023-03-01T05:13:13;7.75;;;3.85;;
74791;SDS011;63319;46.046;17.802;2023-03-01T05:16:22;7.20;;;4.13;;
74791;SDS011;63319;46.046;17.802;2023-03-01T05:19:25;7.40;;;4.60;;
74791;SDS011;63319;46.046;17.802;2023-03-01T05:22:29;7.23;;;4.50;;
74791;SDS011;63319;46.046;17.802;2023-03-01T05:25:33;8.13;;;4.45;;
74791;SDS011;63319;46.046;17.802;2023-03-01T05:28:36;7.90;;;4.22;;
74791;SDS011;63319;46.046;17.802;2023-03-01T05:31:40;7.60;;;4.50;;
74791;SDS011;63319;46.046;17.802;2023-03-01T05:34:43;8.13;;;4.47;;
74791;SDS011;63319;46.046;17.802;2023-03-01T05:37:48;7.13;;;4.10;;
74791;SDS011;63319;46.046;17.802;2023-03-01T05:40:52;6.75;;;4.25;;
74791;SDS011;63319;46.046;17.802;2023-03-01T05:43:55;12.38;;;4.85;;
74791;SDS011;63319;46.046;17.802;2023-03-01T05:46:57;8.70;;;4.75;;
74791;SDS011;63319;46.046;17.802;2023-03-01T05:50:01;7.50;;;4.43;;
74791;SDS011;63319;46.046;17.802;2023-03-01T05:53:09;7.57;;;4.43;;
74791;SDS011;63319;46.046;17.802;2023-03-01T05:56:14;8.00;;;4.57;;
74791;SDS011;63319;46.046;17.802;2023-03-01T05:59:17;7.55;;;4.10;;
74791;SDS011;63319;46.046;17.802;2023-03-01T06:02:20;7.05;;;4.13;;
74791;SDS011;63319;46.046;17.802;2023-03-01T06:05:26;8.07;;;4.40;;
74791;SDS011;63319;46.046;17.802;2023-03-01T06:08:29;6.50;;;3.63;;
74791;SDS011;63319;46.046;17.802;2023-03-01T06:11:35;8.60;;;4.63;;
74791;SDS011;63319;46.046;17.802;2023-03-01T06:14:39;8.48;;;4.35;;
74791;SDS011;63319;46.046;17.802;2023-03-01T06:17:42;7.47;;;4.57;;
74791;SDS011;63319;46.046;17.802;2023-03-01T06:20:56;8.23;;;4.90;;
74791;SDS011;63319;46.046;17.802;2023-03-01T06:23:58;7.60;;;3.87;;
74791;SDS011;63319;46.046;17.802;2023-03-01T06:27:01;7.75;;;4.60;;
74791;SDS011;63319;46.046;17.802;2023-03-01T06:30:04;7.57;;;4.50;;
74791;SDS011;63319;46.046;17.802;2023-03-01T06:33:10;8.52;;;4.90;;
74791;SDS011;63319;46.046;17.802;2023-03-01T06:36:13;7.77;;;4.50;;
74791;SDS011;63319;46.046;17.802;2023-03-01T06:39:15;8.70;;;4.23;;
74791;SDS011;63319;46.046;17.802;2023-03-01T06:42:19;7.05;;;4.10;;
74791;SDS011;63319;46.046;17.802;2023-03-01T06:45:25;7.97;;;4.30;;
74791;SDS011;63319;46.046;17.802;2023-03-01T06:48:28;6.65;;;4.57;;
74791;SDS011;63319;46.046;17.802;2023-03-01T06:51:31;8.20;;;4.30;;
74791;SDS011;63319;46.046;17.802;2023-03-01T06:54:34;7.93;;;5.00;;
74791;SDS011;63319;46.046;17.802;2023-03-01T06:57:37;9.18;;;4.63;;
74791;SDS011;63319;46.046;17.802;2023-03-01T07:00:41;7.45;;;4.40;;
74791;SDS011;63319;46.046;17.802;2023-03-01T07:03:47;6.80;;;3.95;;
74791;SDS011;63319;46.046;17.802;2023-03-01T07:06:50;7.33;;;4.10;;
74791;SDS011;63319;46.046;17.802;2023-03-01T07:09:57;7.43;;;4.33;;
74791;SDS011;63319;46.046;17.802;2023-03-01T07:13:00;8.55;;;4.20;;
74791;SDS011;63319;46.046;17.802;2023-03-01T07:16:03;7.07;;;4.00;;
74791;SDS011;63319;46.046;17.802;2023-03-01T07:19:06;7.75;;;4.75;;
74791;SDS011;63319;46.046;17.802;2023-03-01T07:22:09;8.07;;;4.43;;
74791;SDS011;63319;46.046;17.802;2023-03-01T07:25:12;7.50;;;4.40;;
74791;SDS011;63319;46.046;17.802;2023-03-01T07:28:15;6.78;;;3.92;;
74791;SDS011;63319;46.046;17.802;2023-03-01T07:31:18;7.30;;;4.10;;
74791;SDS011;63319;46.046;17.802;2023-03-01T07:34:21;7.82;;;4.57;;
74791;SDS011;63319;46.046;17.802;2023-03-01T07:37:24;8.57;;;4.13;;
74791;SDS011;63319;46.046;17.802;2023-03-01T07:40:27;8.10;;;4.57;;
74791;SDS011;63319;46.046;17.802;2023-03-01T07:43:31;8.70;;;5.18;;
74791;SDS011;63319;46.046;17.802;2023-03-01T07:46:34;7.93;;;4.55;;
74791;SDS011;63319;46.046;17.802;2023-03-01T07:49:37;7.63;;;4.53;;
74791;SDS011;63319;46.046;17.802;2023-03-01T07:52:40;7.00;;;4.27;;
74791;SDS011;63319;46.046;17.802;2023-03-01T07:55:43;7.87;;;4.77;;
74791;SDS011;63319;46.046;17.802;2023-03-01T07:58:46;9.88;;;4.18;;
74791;SDS011;63319;46.046;17.802;2023-03-01T08:01:52;7.50;;;4.43;;
74791;SDS011;63319;46.046;17.802;2023-03-01T08:04:58;8.25;;;5.05;;
74791;SDS011;63319;46.046;17.802;2023-03-01T08:08:01;10.00;;;5.27;;
74791;SDS011;63319;46.046;17.802;2023-03-01T08:11:05;10.50;;;4.97;;
74791;SDS011;63319;46.046;17.802;2023-03-01T08:14:13;10.30;;;4.78;;
74791;SDS011;63319;46.046;17.802;2023-03-01T08:17:17;11.05;;;5.10;;
74791;SDS011;63319;46.046;17.802;2023-03-01T08:20:23;9.88;;;5.95;;
74791;SDS011;63319;46.046;17.802;2023-03-01T08:23:27;10.03;;;6.07;;
74791;SDS011;63319;46.046;17.802;2023-03-01T08:26:30;9.50;;;5.57;;
74791;SDS011;63319;46.046;17.802;2023-03-01T08:29:35;8.00;;;5.35;;
74791;SDS011;63319;46.046;17.802;2023-03-01T08:32:38;10.13;;;5.90;;
74791;SDS011;63319;46.046;17.802;2023-03-01T08:35:41;9.93;;;5.85;;
74791;SDS011;63319;46.046;17.802;2023-03-01T08:38:44;10.00;;;5.83;;
74791;SDS011;63319;46.046;17.802;2023-03-01T08:41:48;10.97;;;5.50;;
74791;SDS011;63319;46.046;17.802;2023-03-01T08:44:51;8.32;;;5.55;;
74791;SDS011;63319;46.046;17.802;2023-03-01T08:47:53;10.13;;;5.25;;
74791;SDS011;63319;46.046;17.802;2023-03-01T08:51:05;10.75;;;5.28;;
74791;SDS011;63319;46.046;17.802;2023-03-01T08:54:21;9.97;;;5.20;;
74791;SDS011;63319;46.046;17.802;2023-03-01T08:57:25;8.40;;;5.33;;
74791;SDS011;63319;46.046;17.802;2023-03-01T09:00:33;10.18;;;5.78;;
74791;SDS011;63319;46.046;17.802;2023-03-01T09:03:37;9.48;;;5.47;;
74791;SDS011;63319;46.046;17.802;2023-03-01T09:06:40;9.13;;;5.18;;
74791;SDS011;63319;46.046;17.802;2023-03-01T09:09:43;9.47;;;5.40;;
74791;SDS011;63319;46.046;17.802;2023-03-01T09:12:46;11.93;;;6.10;;
74791;SDS011;63319;46.046;17.802;2023-03-01T09:15:49;8.82;;;5.57;;
74791;SDS011;63319;46.046;17.802;2023-03-01T09:18:52;8.32;;;4.90;;
74791;SDS011;63319;46.046;17.802;2023-03-01T09:21:56;10.57;;;5.10;;
74791;SDS011;63319;46.046;17.802;2023-03-01T09:25:00;9.00;;;4.63;;
74791;SDS011;63319;46.046;17.802;2023-03-01T09:28:03;9.03;;;4.87;;
74791;SDS011;63319;46.046;17.802;2023-03-01T09:31:07;9.43;;;5.55;;
74791;SDS011;63319;46.046;17.802;2023-03-01T09:34:10;9.05;;;5.00;;
74791;SDS011;63319;46.046;17.802;2023-03-01T09:37:13;8.57;;;5.35;;
74791;SDS011;63319;46.046;17.802;2023-03-01T09:40:20;8.63;;;5.20;;
74791;SDS011;63319;46.046;17.802;2023-03-01T09:46:36;9.48;;;4.60;;
74791;SDS011;63319;46.046;17.802;2023-03-01T09:49:45;8.75;;;5.25;;
74791;SDS011;63319;46.046;17.802;2023-03-01T09:53:15;10.27;;;5.90;;
74791;SDS011;63319;46.046;17.802;2023-03-01T09:56:20;11.20;;;5.47;;
74791;SDS011;63319;46.046;17.802;2023-03-01T10:03:36;8.65;;;5.07;;
74791;SDS011;63319;46.046;17.802;2023-03-01T10:07:18;9.07;;;5.60;;
74791;SDS011;63319;46.046;17.802;2023-03-01T10:10:47;8.77;;;5.38;;
74791;SDS011;63319;46.046;17.802;2023-03-01T10:13:56;9.07;;;5.03;;
74791;SDS011;63319;46.046;17.802;2023-03-01T10:17:17;9.50;;;5.70;;
74791;SDS011;63319;46.046;17.802;2023-03-01T10:20:36;11.18;;;5.47;;
74791;SDS011;63319;46.046;17.802;2023-03-01T10:23:52;7.70;;;5.28;;
74791;SDS011;63319;46.046;17.802;2023-03-01T10:26:56;9.00;;;5.93;;
74791;SDS011;63319;46.046;17.802;2023-03-01T10:30:07;10.40;;;5.20;;
74791;SDS011;63319;46.046;17.802;2023-03-01T10:33:26;10.20;;;5.50;;
74791;SDS011;63319;46.046;17.802;2023-03-01T10:36:32;10.43;;;5.47;;
74791;SDS011;63319;46.046;17.802;2023-03-01T10:39:36;8.98;;;5.60;;
74791;SDS011;63319;46.046;17.802;2023-03-01T10:42:40;8.75;;;5.70;;
74791;SDS011;63319;46.046;17.802;2023-03-01T10:45:50;9.57;;;5.50;;
74791;SDS011;63319;46.046;17.802;2023-03-01T10:52:23;10.70;;;4.88;;
74791;SDS011;63319;46.046;17.802;2023-03-01T10:55:34;9.48;;;5.32;;
74791;SDS011;63319;46.046;17.802;2023-03-01T10:58:40;9.30;;;5.65;;
74791;SDS011;63319;46.046;17.802;2023-03-01T11:05:25;7.93;;;4.60;;
74791;SDS011;63319;46.046;17.802;2023-03-01T11:11:53;8.75;;;5.28;;
74791;SDS011;63319;46.046;17.802;2023-03-01T11:14:58;8.65;;;5.60;;
74791;SDS011;63319;46.046;17.802;2023-03-01T11:18:01;8.17;;;5.43;;
74791;SDS011;63319;46.046;17.802;2023-03-01T11:21:15;8.67;;;5.43;;
74791;SDS011;63319;46.046;17.802;2023-03-01T11:24:18;8.70;;;5.65;;
74791;SDS011;63319;46.046;17.802;2023-03-01T11:27:26;8.27;;;5.47;;
74791;SDS011;63319;46.046;17.802;2023-03-01T11:34:19;9.17;;;5.67;;
74791;SDS011;63319;46.046;17.802;2023-03-01T11:40:52;9.88;;;5.95;;
74791;SDS011;63319;46.046;17.802;2023-03-01T11:50:23;10.87;;;6.13;;
74791;SDS011;63319;46.046;17.802;2023-03-01T11:53:44;10.83;;;7.00;;
74791;SDS011;63319;46.046;17.802;2023-03-01T11:57:01;9.32;;;6.07;;
74791;SDS011;63319;46.046;17.802;2023-03-01T12:00:51;10.52;;;6.35;;
74791;SDS011;63319;46.046;17.802;2023-03-01T12:14:04;10.65;;;6.28;;
74791;SDS011;63319;46.046;17.802;2023-03-01T12:24:23;10.13;;;6.47;;
74791;SDS011;63319;46.046;17.802;2023-03-01T12:37:54;9.15;;;6.43;;
74791;SDS011;63319;46.046;17.802;2023-03-01T12:51:35;10.18;;;5.80;;
74791;SDS011;63319;46.046;17.802;2023-03-01T12:54:44;10.38;;;6.97;;
74791;SDS011;63319;46.046;17.802;2023-03-01T12:57:53;14.47;;;6.87;;
74791;SDS011;63319;46.046;17.802;2023-03-01T13:01:31;12.20;;;7.50;;
74791;SDS011;63319;46.046;17.802;2023-03-01T13:08:19;12.45;;;7.40;;
74791;SDS011;63319;46.046;17.802;2023-03-01T13:11:33;26.45;;;10.88;;
74791;SDS011;63319;46.046;17.802;2023-03-01T13:14:38;14.90;;;7.53;;
74791;SDS011;63319;46.046;17.802;2023-03-01T13:17:48;13.77;;;7.70;;
74791;SDS011;63319;46.046;17.802;2023-03-01T13:21:00;14.23;;;6.63;;
74791;SDS011;63319;46.046;17.802;2023-03-01T13:24:22;12.32;;;7.20;;
74791;SDS011;63319;46.046;17.802;2023-03-01T13:27:30;12.57;;;7.05;;
74791;SDS011;63319;46.046;17.802;2023-03-01T13:30:40;16.73;;;7.23;;
74791;SDS011;63319;46.046;17.802;2023-03-01T13:33:54;14.90;;;6.77;;
74791;SDS011;63319;46.046;17.802;2023-03-01T13:37:10;12.20;;;7.28;;
74791;SDS011;63319;46.046;17.802;2023-03-01T13:43:29;27.85;;;7.40;;
74791;SDS011;63319;46.046;17.802;2023-03-01T13:46:37;15.00;;;6.80;;
74791;SDS011;63319;46.046;17.802;2023-03-01T13:49:42;15.37;;;6.50;;
74791;SDS011;63319;46.046;17.802;2023-03-01T13:53:00;14.60;;;7.03;;
74791;SDS011;63319;46.046;17.802;2023-03-01T13:56:12;12.85;;;6.80;;
74791;SDS011;63319;46.046;17.802;2023-03-01T13:59:19;12.55;;;7.07;;
74791;SDS011;63319;46.046;17.802;2023-03-01T14:02:24;14.27;;;7.00;;
74791;SDS011;63319;46.046;17.802;2023-03-01T14:05:26;10.43;;;6.47;;
74791;SDS011;63319;46.046;17.802;2023-03-01T14:08:30;10.68;;;6.68;;
74791;SDS011;63319;46.046;17.802;2023-03-01T14:14:51;12.40;;;7.28;;
74791;SDS011;63319;46.046;17.802;2023-03-01T14:21:30;14.93;;;6.90;;
74791;SDS011;63319;46.046;17.802;2023-03-01T14:24:33;13.15;;;6.68;;
74791;SDS011;63319;46.046;17.802;2023-03-01T14:27:39;10.63;;;6.40;;
74791;SDS011;63319;46.046;17.802;2023-03-01T14:30:48;11.55;;;6.47;;
74791;SDS011;63319;46.046;17.802;2023-03-01T14:33:55;11.97;;;6.40;;
74791;SDS011;63319;46.046;17.802;2023-03-01T14:37:09;11.30;;;6.63;;
74791;SDS011;63319;46.046;17.802;2023-03-01T14:40:32;11.07;;;6.55;;
74791;SDS011;63319;46.046;17.802;2023-03-01T14:43:37;11.35;;;6.40;;
74791;SDS011;63319;46.046;17.802;2023-03-01T14:46:44;10.35;;;5.88;;
74791;SDS011;63319;46.046;17.802;2023-03-01T14:49:53;9.30;;;5.90;;
74791;SDS011;63319;46.046;17.802;2023-03-01T14:53:07;12.67;;;7.20;;
74791;SDS011;63319;46.046;17.802;2023-03-01T14:56:26;11.20;;;7.15;;
74791;SDS011;63319;46.046;17.802;2023-03-01T14:59:29;11.50;;;6.57;;
74791;SDS011;63319;46.046;17.802;2023-03-01T15:02:32;9.82;;;6.40;;
74791;SDS011;63319;46.046;17.802;2023-03-01T15:05:36;13.03;;;6.40;;
74791;SDS011;63319;46.046;17.802;2023-03-01T15:08:41;9.43;;;6.27;;
74791;SDS011;63319;46.046;17.802;2023-03-01T15:11:47;10.85;;;6.38;;
74791;SDS011;63319;46.046;17.802;2023-03-01T15:14:50;11.50;;;6.07;;
74791;SDS011;63319;46.046;17.802;2023-03-01T15:18:27;12.55;;;6.32;;
74791;SDS011;63319;46.046;17.802;2023-03-01T15:21:33;11.67;;;6.07;;
74791;SDS011;63319;46.046;17.802;2023-03-01T15:24:38;12.03;;;7.00;;
74791;SDS011;63319;46.046;17.802;2023-03-01T15:27:44;10.68;;;6.60;;
74791;SDS011;63319;46.046;17.802;2023-03-01T15:30:57;10.00;;;6.18;;
74791;SDS011;63319;46.046;17.802;2023-03-01T15:34:33;11.00;;;6.88;;
74791;SDS011;63319;46.046;17.802;2023-03-01T15:37:44;10.37;;;6.40;;
74791;SDS011;63319;46.046;17.802;2023-03-01T15:40:51;10.07;;;6.17;;
74791;SDS011;63319;46.046;17.802;2023-03-01T15:43:55;10.50;;;6.30;;
74791;SDS011;63319;46.046;17.802;2023-03-01T15:46:58;10.52;;;6.18;;
74791;SDS011;63319;46.046;17.802;2023-03-01T15:50:02;9.23;;;6.35;;
74791;SDS011;63319;46.046;17.802;2023-03-01T15:53:10;9.23;;;6.20;;
74791;SDS011;63319;46.046;17.802;2023-03-01T15:56:17;9.30;;;6.00;;
74791;SDS011;63319;46.046;17.802;2023-03-01T15:59:20;9.13;;;5.90;;
74791;SDS011;63319;46.046;17.802;2023-03-01T16:02:24;11.98;;;6.13;;
74791;SDS011;63319;46.046;17.802;2023-03-01T16:05:28;10.02;;;6.25;;
74791;SDS011;63319;46.046;17.802;2023-03-01T16:08:33;12.40;;;5.70;;
74791;SDS011;63319;46.046;17.802;2023-03-01T16:11:36;10.87;;;7.17;;
74791;SDS011;63319;46.046;17.802;2023-03-01T16:14:40;11.68;;;6.82;;
74791;SDS011;63319;46.046;17.802;2023-03-01T16:17:43;9.15;;;5.80;;
74791;SDS011;63319;46.046;17.802;2023-03-01T16:20:56;13.25;;;6.35;;
74791;SDS011;63319;46.046;17.802;2023-03-01T16:23:59;11.40;;;6.67;;
74791;SDS011;63319;46.046;17.802;2023-03-01T16:27:02;11.30;;;6.30;;
74791;SDS011;63319;46.046;17.802;2023-03-01T16:30:06;10.02;;;6.15;;
74791;SDS011;63319;46.046;17.802;2023-03-01T16:33:16;11.60;;;6.25;;
74791;SDS011;63319;46.046;17.802;2023-03-01T16:36:34;9.75;;;6.32;;
74791;SDS011;63319;46.046;17.802;2023-03-01T16:39:39;11.70;;;6.13;;
74791;SDS011;63319;46.046;17.802;2023-03-01T16:42:42;11.70;;;6.30;;
74791;SDS011;63319;46.046;17.802;2023-03-01T16:45:46;10.52;;;6.80;;
74791;SDS011;63319;46.046;17.802;2023-03-01T16:48:50;10.35;;;6.43;;
74791;SDS011;63319;46.046;17.802;2023-03-01T16:51:54;9.68;;;6.57;;
74791;SDS011;63319;46.046;17.802;2023-03-01T16:54:57;10.27;;;6.73;;
74791;SDS011;63319;46.046;17.802;2023-03-01T16:58:00;8.80;;;5.90;;
74791;SDS011;63319;46.046;17.802;2023-03-01T17:01:06;12.15;;;6.32;;
74791;SDS011;63319;46.046;17.802;2023-03-01T17:04:11;11.13;;;6.70;;
74791;SDS011;63319;46.046;17.802;2023-03-01T17:07:15;9.07;;;5.97;;
74791;SDS011;63319;46.046;17.802;2023-03-01T17:10:19;9.87;;;6.00;;
74791;SDS011;63319;46.046;17.802;2023-03-01T17:13:22;12.83;;;6.17;;
74791;SDS011;63319;46.046;17.802;2023-03-01T17:16:26;9.32;;;5.90;;
74791;SDS011;63319;46.046;17.802;2023-03-01T17:19:29;10.50;;;5.75;;
74791;SDS011;63319;46.046;17.802;2023-03-01T17:22:34;9.77;;;6.45;;
74791;SDS011;63319;46.046;17.802;2023-03-01T17:25:44;10.23;;;6.47;;
74791;SDS011;63319;46.046;17.802;2023-03-01T17:28:47;10.03;;;6.57;;
74791;SDS011;63319;46.046;17.802;2023-03-01T17:31:54;10.32;;;6.40;;
74791;SDS011;63319;46.046;17.802;2023-03-01T17:34:58;9.93;;;6.45;;
74791;SDS011;63319;46.046;17.802;2023-03-01T17:38:02;11.88;;;6.03;;
74791;SDS011;63319;46.046;17.802;2023-03-01T17:41:08;10.27;;;6.90;;
74791;SDS011;63319;46.046;17.802;2023-03-01T17:44:13;10.63;;;6.23;;
74791;SDS011;63319;46.046;17.802;2023-03-01T17:47:17;10.70;;;6.70;;
74791;SDS011;63319;46.046;17.802;2023-03-01T17:50:20;11.80;;;6.88;;
74791;SDS011;63319;46.046;17.802;2023-03-01T17:53:27;10.30;;;6.60;;
74791;SDS011;63319;46.046;17.802;2023-03-01T17:56:31;10.37;;;6.73;;
74791;SDS011;63319;46.046;17.802;2023-03-01T17:59:35;9.13;;;6.23;;
74791;SDS011;63319;46.046;17.802;2023-03-01T18:02:38;12.05;;;6.95;;
74791;SDS011;63319;46.046;17.802;2023-03-01T18:05:43;11.30;;;6.90;;
74791;SDS011;63319;46.046;17.802;2023-03-01T18:08:49;10.75;;;6.70;;
74791;SDS011;63319;46.046;17.802;2023-03-01T18:11:55;12.17;;;7.20;;
74791;SDS011;63319;46.046;17.802;2023-03-01T18:15:00;10.73;;;6.97;;
74791;SDS011;63319;46.046;17.802;2023-03-01T18:18:06;9.57;;;6.18;;
74791;SDS011;63319;46.046;17.802;2023-03-01T18:21:10;11.32;;;7.10;;
74791;SDS011;63319;46.046;17.802;2023-03-01T18:24:15;9.93;;;6.97;;
74791;SDS011;63319;46.046;17.802;2023-03-01T18:27:19;11.27;;;7.00;;
74791;SDS011;63319;46.046;17.802;2023-03-01T18:30:23;11.30;;;6.67;;
74791;SDS011;63319;46.046;17.802;2023-03-01T18:33:26;9.80;;;6.72;;
74791;SDS011;63319;46.046;17.802;2023-03-01T18:36:31;10.68;;;7.03;;
74791;SDS011;63319;46.046;17.802;2023-03-01T18:39:36;10.95;;;6.95;;
74791;SDS011;63319;46.046;17.802;2023-03-01T18:42:42;13.63;;;6.33;;
74791;SDS011;63319;46.046;17.802;2023-03-01T18:45:45;10.93;;;6.20;;
74791;SDS011;63319;46.046;17.802;2023-03-01T18:48:52;9.50;;;6.45;;
74791;SDS011;63319;46.046;17.802;2023-03-01T18:51:56;11.00;;;6.75;;
74791;SDS011;63319;46.046;17.802;2023-03-01T18:55:00;9.93;;;5.95;;
74791;SDS011;63319;46.046;17.802;2023-03-01T18:58:04;10.87;;;6.63;;
74791;SDS011;63319;46.046;17.802;2023-03-01T19:01:15;10.87;;;6.70;;
74791;SDS011;63319;46.046;17.802;2023-03-01T19:04:23;10.20;;;6.40;;
74791;SDS011;63319;46.046;17.802;2023-03-01T19:07:26;10.35;;;6.70;;
74791;SDS011;63319;46.046;17.802;2023-03-01T19:10:31;11.00;;;6.53;;
74791;SDS011;63319;46.046;17.802;2023-03-01T19:13:34;10.23;;;6.63;;
74791;SDS011;63319;46.046;17.802;2023-03-01T19:16:41;11.67;;;6.80;;
74791;SDS011;63319;46.046;17.802;2023-03-01T19:19:45;10.75;;;6.70;;
74791;SDS011;63319;46.046;17.802;2023-03-01T19:22:49;9.98;;;6.43;;
74791;SDS011;63319;46.046;17.802;2023-03-01T19:26:00;10.98;;;6.65;;
74791;SDS011;63319;46.046;17.802;2023-03-01T19:29:05;10.90;;;6.40;;
74791;SDS011;63319;46.046;17.802;2023-03-01T19:32:13;9.90;;;6.63;;
74791;SDS011;63319;46.046;17.802;2023-03-01T19:35:17;10.75;;;6.60;;
74791;SDS011;63319;46.046;17.802;2023-03-01T19:38:23;11.05;;;7.05;;
74791;SDS011;63319;46.046;17.802;2023-03-01T19:41:28;11.00;;;6.60;;
74791;SDS011;63319;46.046;17.802;2023-03-01T19:44:33;11.53;;;6.77;;
74791;SDS011;63319;46.046;17.802;2023-03-01T19:47:37;10.10;;;6.93;;
74791;SDS011;63319;46.046;17.802;2023-03-01T19:50:42;9.25;;;6.45;;